Sundridge, Canada
Current Conditions -  °F | °C
As of 3:02 AM on Monday 24 Nov 2014 (Local Time) from CYYB Reporting Station
Light Rain Light Rain  
Wind Chill: 30°   Ceiling: 8500
Heat Index: 39°   Visibility: 9mi
Dew Point: 37°   Wind: 20mph
Humidity: 93%   Direction: 110°ESE
Pressure: 29.37"   Gusts: 25mph
Location:  45.77°N, 79.4°W
Report Text: CYYB 240802Z AUTO 11017G22KT 9SM -RA OVC085 04/03 A2937 RMK PRESFR SLP955
Loading
Personal Weather Stations






























Interactive Weather Map New forecast layout! Learn more

10-Day Weather Forecast

Advertisements
Track Severe Weather on mobile